Time;durP1;ratioP1;P1;durP2;ratioP2;P2;SDS_P1;SDS_P2;PMS_P1;PMS_P2;Temp;Humidity;BMP_temperature;BMP_pressure;BME280_temperature;BME280_humidity;BME280_pressure;Samples;Min_cycle;Max_cycle;Signal;HPM_P1;HPM_P2
2022/12/31 00:00:39;;;;;;;63.37;45.67;;;;;;;4.90;67.69;100727.28;5055245;28;20029;-79
2022/12/31 00:03:05;;;;;;;56.97;43.07;;;;;;;4.93;67.52;100713.16;5060327;28;20032;-78
2022/12/31 00:05:35;;;;;;;52.37;40.17;;;;;;;4.97;67.69;100762.53;5060687;28;20086;-78
2022/12/31 00:08:00;;;;;;;56.33;41.90;;;;;;;4.97;67.48;100720.66;5059962;28;20478;-78
2022/12/31 00:10:27;;;;;;;59.47;41.30;;;;;;;4.47;67.28;100643.28;5060835;28;20035;-78
2022/12/31 00:12:52;;;;;;;63.47;45.03;;;;;;;3.90;67.08;100555.06;5057503;28;20188;-79
2022/12/31 00:15:18;;;;;;;57.90;43.47;;;;;;;4.93;67.28;100729.69;5055936;28;20608;-79
2022/12/31 00:17:43;;;;;;;57.50;42.40;;;;;;;4.06;67.27;100591.38;5053005;28;20017;-79
2022/12/31 00:20:09;;;;;;;63.85;43.05;;;;;;;4.83;67.23;100718.22;5051959;28;20078;-80
2022/12/31 00:22:34;;;;;;;58.33;41.17;;;;;;;4.34;67.07;100640.69;5052302;28;20039;-79
2022/12/31 00:25:00;;;;;;;61.33;40.77;;;;;;;3.92;67.16;100570.63;5052934;28;20505;-79
2022/12/31 00:27:25;;;;;;;54.63;38.30;;;;;;;4.64;67.17;100691.75;5053243;28;20025;-80
2022/12/31 00:29:51;;;;;;;48.63;34.67;;;;;;;4.89;67.17;100733.47;5053132;28;20029;-78
2022/12/31 00:32:16;;;;;;;48.90;34.67;;;;;;;4.91;67.07;100736.81;5053224;28;20032;-79
2022/12/31 00:34:41;;;;;;;49.30;34.90;;;;;;;4.67;66.90;100699.38;5053369;28;20055;-79
2022/12/31 00:37:07;;;;;;;54.47;38.90;;;;;;;4.67;67.24;100699.38;5052872;28;20100;-79
2022/12/31 00:39:32;;;;;;;47.83;35.13;;;;;;;4.32;66.84;100655.66;5053050;28;20046;-79
2022/12/31 00:41:58;;;;;;;49.23;36.53;;;;;;;4.64;66.86;100705.66;5052806;28;20020;-80
2022/12/31 00:44:23;;;;;;;45.43;33.93;;;;;;;4.78;66.79;100749.94;5052868;28;20025;-79
2022/12/31 00:46:49;;;;;;;51.13;36.63;;;;;;;4.33;66.72;100678.25;5052512;28;20074;-79
2022/12/31 00:49:14;;;;;;;46.80;34.27;;;;;;;4.33;66.51;100678.25;5052657;28;20029;-80
2022/12/31 00:51:40;;;;;;;48.80;35.70;;;;;;;3.96;66.47;100622.53;5052585;28;20083;-80
2022/12/31 00:54:05;;;;;;;59.07;39.90;;;;;;;4.64;66.29;100728.34;5052337;28;20020;-79
2022/12/31 00:56:31;;;;;;;60.50;40.97;;;;;;;4.76;66.37;100753.63;5052422;28;20024;-79
2022/12/31 00:58:58;;;;;;;49.80;34.93;;;;;;;4.57;66.01;100740.22;5052629;28;20096;-79
2022/12/31 01:01:29;;;;;;;48.70;36.37;;;;;;;4.71;66.04;100750.50;5058924;28;20024;-79
2022/12/31 01:03:58;;;;;;;54.10;39.30;;;;;;;4.44;66.12;100721.91;5058087;28;20028;-79
2022/12/31 01:06:23;;;;;;;40.23;31.27;;;;;;;4.57;66.32;100761.13;5056538;28;20425;-80
2022/12/31 01:08:50;;;;;;;38.73;29.87;;;;;;;3.51;66.21;100592.66;5058226;28;20029;-79
2022/12/31 01:11:21;;;;;;;40.10;30.53;;;;;;;4.47;66.49;100763.56;5057131;28;20071;-78
2022/12/31 01:13:48;;;;;;;41.77;30.73;;;;;;;4.45;66.25;100763.66;5060174;28;20048;-79
2022/12/31 01:16:18;;;;;;;45.77;30.97;;;;;;;3.82;66.20;100682.78;5052290;28;20025;-79
2022/12/31 01:18:44;;;;;;;36.60;26.40;;;;;;;3.67;66.58;100676.81;5052092;28;20031;-80
2022/12/31 01:21:14;;;;;;;35.97;26.33;;;;;;;4.17;66.14;100734.34;5052098;28;20099;-79
2022/12/31 01:23:39;;;;;;;34.67;26.30;;;;;;;4.34;66.34;100768.81;5052015;28;20029;-79
2022/12/31 01:26:07;;;;;;;33.03;25.73;;;;;;;4.04;66.27;100701.22;5051737;28;20021;-79
2022/12/31 01:28:33;;;;;;;63.17;40.07;;;;;;;3.88;66.09;100658.00;5051850;28;20025;-79
2022/12/31 01:31:03;;;;;;;80.37;46.93;;;;;;;4.37;66.15;100739.81;5055450;28;20025;-79
2022/12/31 01:33:28;;;;;;;44.17;29.43;;;;;;;3.25;66.10;100568.34;5057656;28;20028;-79
2022/12/31 01:35:54;;;;;;;34.47;25.77;;;;;;;3.34;65.98;100586.00;5057049;28;20489;-78
2022/12/31 01:38:19;;;;;;;32.87;24.43;;;;;;;4.26;65.97;100725.84;5058282;28;20029;-79
2022/12/31 01:40:44;;;;;;;35.80;26.77;;;;;;;4.40;65.90;100754.47;5054168;28;20028;-79
2022/12/31 01:43:18;;;;;;;32.03;23.73;;;;;;;4.36;65.69;100745.16;5053913;28;20024;-79
2022/12/31 01:45:47;;;;;;;33.73;25.10;;;;;;;1.60;65.40;100302.47;5052885;28;20497;-80
2022/12/31 01:48:17;;;;;;;34.87;26.17;;;;;;;4.33;65.79;100754.06;5051719;28;20147;-79
2022/12/31 01:50:45;;;;;;;34.50;25.70;;;;;;;4.13;65.48;100708.41;5050482;28;20414;-79
2022/12/31 01:53:11;;;;;;;37.03;26.60;;;;;;;4.15;65.89;100724.81;5051415;28;20025;-79
2022/12/31 01:55:48;;;;;;;38.07;27.07;;;;;;;4.26;65.18;100755.44;5051638;28;20028;-79
2022/12/31 01:58:25;;;;;;;38.83;29.40;;;;;;;2.91;65.38;100555.94;5051542;28;20506;-79
2022/12/31 02:00:52;;;;;;;40.83;29.90;;;;;;;4.22;65.67;100761.00;5051764;28;20031;-79
2022/12/31 02:03:20;;;;;;;39.53;29.90;;;;;;;2.77;65.84;100530.78;5052248;28;20096;-79
2022/12/31 02:06:23;;;;;;;38.93;29.17;;;;;;;4.27;65.36;100770.19;5051496;28;20041;-79
2022/12/31 02:08:50;;;;;;;35.50;25.93;;;;;;;4.08;65.39;100727.97;5047836;28;20041;-79
2022/12/31 02:11:28;;;;;;;40.37;29.23;;;;;;;3.53;65.59;100661.25;5051438;28;20025;-79
2022/12/31 02:13:59;;;;;;;32.73;24.70;;;;;;;3.54;65.68;100660.31;5052844;28;20175;-79
2022/12/31 02:16:51;;;;;;;34.97;25.83;;;;;;;3.27;65.48;100605.63;5052565;28;20021;-79
2022/12/31 02:19:28;;;;;;;35.20;24.23;;;;;;;4.29;65.54;100750.00;5052861;28;20052;-79
2022/12/31 02:22:09;;;;;;;29.80;23.87;;;;;;;4.31;65.64;100745.50;5052302;28;20017;-79
2022/12/31 02:24:59;;;;;;;31.57;23.37;;;;;;;4.32;65.58;100743.72;5052118;28;20497;-79
2022/12/31 02:27:27;;;;;;;32.27;22.57;;;;;;;4.37;65.81;100752.91;5050806;28;20416;-79
2022/12/31 02:30:01;;;;;;;33.00;22.97;;;;;;;4.37;65.29;100747.66;5051431;28;20048;-79
2022/12/31 02:32:45;;;;;;;34.07;22.07;;;;;;;4.31;65.28;100742.03;5051296;28;20027;-79
2022/12/31 02:35:19;;;;;;;34.53;23.00;;;;;;;4.31;65.45;100758.56;5049923;28;20032;-79
2022/12/31 02:37:50;;;;;;;33.30;22.10;;;;;;;4.29;65.77;100752.59;5051120;28;20025;-79
2022/12/31 02:40:20;;;;;;;39.20;25.17;;;;;;;3.68;65.65;100669.81;5051133;28;20028;-79
2022/12/31 02:42:45;;;;;;;32.17;21.53;;;;;;;4.28;65.77;100758.78;5051524;28;20068;-79
2022/12/31 02:45:16;;;;;;;36.93;25.43;;;;;;;2.98;65.50;100552.81;5051264;28;20100;-79
2022/12/31 02:47:59;;;;;;;35.23;24.73;;;;;;;4.39;65.24;100771.09;5054421;28;20029;-79
2022/12/31 02:50:54;;;;;;;31.93;22.80;;;;;;;4.42;65.40;100763.88;5055233;28;20028;-79
2022/12/31 02:53:33;;;;;;;33.73;24.23;;;;;;;4.37;65.42;100773.81;5054853;28;20025;-79
2022/12/31 02:56:09;;;;;;;30.20;23.50;;;;;;;4.37;65.30;100773.81;5054846;28;20079;-79
2022/12/31 03:04:32;;;;;;;27.47;21.00;;;;;;;3.79;65.17;100701.28;5055257;28;20166;-80
2022/12/31 03:07:03;;;;;;;30.10;20.27;;;;;;;4.26;65.52;100780.75;5054717;28;20021;-79
2022/12/31 03:09:29;;;;;;;20.85;14.48;;;;;;;3.30;65.75;100641.13;5054623;28;20029;-79
2022/12/31 03:14:38;;;;;;;25.50;17.63;;;;;;;4.13;65.70;100763.31;5054345;28;20567;-79
2022/12/31 03:17:04;;;;;;;22.60;17.87;;;;;;;4.05;65.43;100742.09;5054365;28;20029;-79
2022/12/31 03:22:28;;;;;;;22.10;17.77;;;;;;;3.49;65.15;100631.91;5054452;28;20477;-79
2022/12/31 03:27:47;;;;;;;25.57;18.43;;;;;;;3.52;65.26;100654.38;5054374;28;20032;-79
2022/12/31 03:30:15;;;;;;;25.37;19.77;;;;;;;4.22;65.31;100781.91;5053925;28;20021;-80
2022/12/31 03:32:41;;;;;;;27.10;21.00;;;;;;;3.80;65.47;100718.63;5053876;28;20078;-79
2022/12/31 03:35:07;;;;;;;32.50;23.07;;;;;;;3.97;65.37;100740.97;5053002;28;20025;-79
2022/12/31 03:37:33;;;;;;;33.20;24.03;;;;;;;3.02;64.99;100593.41;5052984;28;20108;-79
2022/12/31 03:39:58;;;;;;;28.50;20.77;;;;;;;3.38;65.22;100654.47;5054050;28;20104;-78
2022/12/31 03:42:24;;;;;;;31.07;22.93;;;;;;;4.19;65.30;100803.84;5053999;28;20499;-79
2022/12/31 03:44:49;;;;;;;29.13;21.23;;;;;;;2.85;65.34;100567.63;5053910;28;20017;-79
2022/12/31 03:47:14;;;;;;;30.93;23.13;;;;;;;3.68;65.42;100696.75;5054028;28;20024;-79
2022/12/31 03:49:40;;;;;;;31.07;22.97;;;;;;;3.39;65.12;100653.53;5053936;28;20394;-79
2022/12/31 03:52:07;;;;;;;26.03;18.93;;;;;;;3.60;65.21;100690.41;5053923;28;20491;-79
2022/12/31 03:54:33;;;;;;;27.30;20.23;;;;;;;4.20;65.22;100813.38;5053841;28;20021;-80
2022/12/31 03:56:58;;;;;;;30.87;22.60;;;;;;;4.23;65.51;100836.69;5052084;28;20021;-79
2022/12/31 03:59:24;;;;;;;27.00;20.07;;;;;;;3.02;64.93;100614.28;5055190;28;20509;-79
2022/12/31 04:01:49;;;;;;;29.13;21.07;;;;;;;3.73;64.88;100719.97;5060160;28;20080;-79
2022/12/31 04:04:14;;;;;;;26.80;21.03;;;;;;;3.79;64.98;100738.69;5061225;28;20047;-79
2022/12/31 04:06:40;;;;;;;29.90;21.17;;;;;;;4.02;65.05;100791.97;5062030;28;20028;-79
2022/12/31 04:09:05;;;;;;;25.17;20.27;;;;;;;3.80;64.97;100742.13;5061747;28;20024;-79
2022/12/31 04:11:31;;;;;;;25.33;19.80;;;;;;;3.97;64.87;100767.91;5061401;28;20041;-79
2022/12/31 04:13:58;;;;;;;25.17;18.90;;;;;;;1.47;64.95;100364.03;5063398;28;20093;-79
2022/12/31 04:16:24;;;;;;;31.17;22.97;;;;;;;3.89;64.87;100751.09;5053515;28;20480;-79
2022/12/31 04:18:49;;;;;;;30.97;23.53;;;;;;;4.14;64.73;100824.25;5053350;28;20115;-79
2022/12/31 04:21:14;;;;;;;29.57;23.57;;;;;;;4.00;64.82;100790.41;5053210;28;20120;-78
2022/12/31 04:23:40;;;;;;;32.97;24.27;;;;;;;3.28;64.96;100674.31;5053068;28;20104;-79
2022/12/31 04:26:05;;;;;;;28.73;21.73;;;;;;;3.27;65.25;100683.09;5052059;28;20024;-79
2022/12/31 04:28:31;;;;;;;33.73;23.87;;;;;;;4.00;65.03;100811.28;5053085;28;20029;-79
2022/12/31 04:30:56;;;;;;;31.77;24.00;;;;;;;3.87;64.97;100789.56;5058357;28;20021;-79
2022/12/31 04:33:21;;;;;;;33.37;24.73;;;;;;;2.99;65.14;100661.44;5059606;28;20513;-78
2022/12/31 04:35:47;;;;;;;36.77;25.10;;;;;;;3.74;64.94;100779.94;5059356;28;20027;-78
2022/12/31 04:38:12;;;;;;;38.60;28.53;;;;;;;3.63;64.75;100755.47;5060036;28;20056;-78
2022/12/31 04:41:15;;;;;;;41.50;30.80;;;;;;;2.73;64.74;100599.72;5059273;28;20501;-78
2022/12/31 04:43:23;;;;;;;43.17;32.33;;;;;;;4.01;64.86;100818.19;5057359;28;20033;-79
2022/12/31 04:45:48;;;;;;;51.53;35.27;;;;;;;3.45;64.69;100741.88;5054042;28;20027;-79
2022/12/31 04:48:14;;;;;;;41.37;31.40;;;;;;;2.46;65.06;100610.22;5052786;28;20504;-79
2022/12/31 04:50:39;;;;;;;41.03;30.93;;;;;;;3.60;65.19;100792.25;5052553;28;20029;-79
2022/12/31 04:53:05;;;;;;;36.27;27.97;;;;;;;3.60;65.24;100793.06;5052421;28;20033;-79
2022/12/31 04:55:30;;;;;;;33.60;26.20;;;;;;;3.80;65.24;100828.31;5052927;28;20481;-79
2022/12/31 04:57:55;;;;;;;29.70;24.27;;;;;;;2.70;64.97;100642.50;5053121;28;20103;-79
2022/12/31 05:00:21;;;;;;;30.23;23.33;;;;;;;3.56;65.15;100796.00;5055590;28;20024;-79
2022/12/31 05:02:46;;;;;;;35.67;27.63;;;;;;;3.02;64.95;100718.66;5055205;28;20036;-79
2022/12/31 05:05:11;;;;;;;30.87;21.73;;;;;;;3.56;65.33;100801.22;5056739;28;20039;-79
2022/12/31 05:07:37;;;;;;;28.23;23.20;;;;;;;3.12;65.09;100730.16;5056658;28;20032;-79
2022/12/31 05:10:03;;;;;;;23.20;17.33;;;;;;;3.78;65.30;100843.28;5056348;28;20478;-79
2022/12/31 05:12:28;;;;;;;21.47;16.83;;;;;;;3.21;65.41;100761.78;5056244;28;20041;-79
2022/12/31 05:14:54;;;;;;;23.73;18.67;;;;;;;3.75;65.41;100839.09;5056357;28;20104;-79
2022/12/31 05:17:19;;;;;;;23.33;20.63;;;;;;;3.61;64.91;100805.19;5056364;28;20104;-79
2022/12/31 05:19:45;;;;;;;24.43;20.23;;;;;;;3.48;65.13;100783.44;5053910;28;20513;-79
2022/12/31 05:22:28;;;;;;;26.97;21.43;;;;;;;3.61;64.95;100818.25;5056235;28;20021;-79
2022/12/31 05:24:54;;;;;;;37.43;27.47;;;;;;;3.80;64.95;100851.84;5056212;28;20104;-79
2022/12/31 05:27:21;;;;;;;29.87;21.77;;;;;;;3.83;65.23;100843.78;5056244;28;20055;-79
2022/12/31 05:29:46;;;;;;;28.73;20.43;;;;;;;3.87;65.31;100847.03;5056500;28;20029;-79
2022/12/31 05:32:12;;;;;;;30.27;21.20;;;;;;;3.73;64.86;100820.06;5057050;28;20032;-80
2022/12/31 05:34:37;;;;;;;31.97;21.10;;;;;;;3.14;64.80;100712.63;5054991;28;20033;-79
2022/12/31 05:37:03;;;;;;;27.53;19.23;;;;;;;4.02;64.60;100848.63;5056477;28;20024;-79
2022/12/31 05:39:28;;;;;;;29.73;23.17;;;;;;;3.97;64.76;100853.31;5056491;28;20033;-79
2022/12/31 05:41:53;;;;;;;27.63;21.30;;;;;;;3.68;65.10;100819.50;5055702;28;20170;-79
2022/12/31 05:44:19;;;;;;;34.37;24.17;;;;;;;3.90;65.13;100865.13;5054435;28;20025;-80
2022/12/31 05:46:45;;;;;;;34.77;24.30;;;;;;;3.45;65.15;100794.09;5051708;28;20035;-79
2022/12/31 05:49:11;;;;;;;35.43;25.93;;;;;;;3.89;65.25;100860.84;5052113;28;20035;-79
2022/12/31 05:51:36;;;;;;;36.43;26.63;;;;;;;3.08;65.28;100741.72;5050701;28;20417;-79
2022/12/31 05:54:02;;;;;;;35.27;26.37;;;;;;;2.82;65.48;100685.19;5051974;28;20024;-80
2022/12/31 05:56:27;;;;;;;34.77;27.50;;;;;;;2.99;65.71;100708.41;5051876;28;20505;-79
2022/12/31 05:58:53;;;;;;;33.30;26.23;;;;;;;3.82;65.62;100839.50;5051951;28;20029;-79
2022/12/31 06:01:18;;;;;;;31.23;22.47;;;;;;;2.58;65.36;100640.69;5056439;28;20013;-79
2022/12/31 06:03:44;;;;;;;38.53;28.37;;;;;;;3.14;65.00;100714.38;5056694;28;20052;-79
2022/12/31 06:06:09;;;;;;;37.93;30.87;;;;;;;3.31;65.05;100732.38;5056401;28;20028;-79
2022/12/31 06:08:35;;;;;;;40.83;29.33;;;;;;;3.64;64.98;100811.97;5055973;28;20512;-79
2022/12/31 06:11:00;;;;;;;46.20;31.27;;;;;;;4.08;64.86;100858.66;5056342;28;20025;-79
2022/12/31 06:13:26;;;;;;;42.23;29.90;;;;;;;4.25;65.34;100883.63;5056710;28;20555;-79
2022/12/31 06:15:51;;;;;;;39.67;27.97;;;;;;;2.89;65.10;100657.75;5056759;28;20055;-79
2022/12/31 06:18:17;;;;;;;41.03;27.60;;;;;;;4.15;64.90;100854.69;5054830;28;20107;-79
2022/12/31 06:20:42;;;;;;;37.73;27.03;;;;;;;4.22;64.97;100876.84;5056057;28;20027;-79
2022/12/31 06:23:08;;;;;;;35.93;26.50;;;;;;;3.64;64.94;100768.41;5059438;28;20040;-79
2022/12/31 06:25:34;;;;;;;47.93;38.33;;;;;;;4.43;64.91;100885.00;5060501;28;20059;-79
2022/12/31 06:27:59;;;;;;;48.37;36.73;;;;;;;3.85;64.97;100783.59;5060109;28;20025;-79
2022/12/31 06:30:25;;;;;;;54.10;40.87;;;;;;;4.51;64.81;100889.72;5058858;28;20017;-79
2022/12/31 06:32:50;;;;;;;53.47;40.73;;;;;;;4.37;65.23;100877.56;5058478;28;20513;-79
2022/12/31 06:35:16;;;;;;;45.40;36.03;;;;;;;4.57;64.92;100897.13;5060434;28;20029;-79
2022/12/31 06:37:41;;;;;;;46.23;36.23;;;;;;;3.81;64.68;100765.53;5058904;28;20029;-79
2022/12/31 06:40:07;;;;;;;51.43;39.80;;;;;;;4.68;64.70;100902.47;5059144;28;20029;-79
2022/12/31 06:42:33;;;;;;;48.73;35.57;;;;;;;4.14;64.76;100817.25;5060166;28;20052;-79
2022/12/31 06:44:58;;;;;;;49.73;37.00;;;;;;;4.71;64.56;100903.09;5059195;28;20029;-79
2022/12/31 06:47:24;;;;;;;58.20;43.37;;;;;;;4.51;64.86;100866.19;5059940;28;20031;-79
2022/12/31 06:49:50;;;;;;;59.70;44.13;;;;;;;4.75;64.74;100891.47;5060221;28;20029;-79
2022/12/31 06:52:16;;;;;;;61.80;44.23;;;;;;;4.81;64.74;100902.44;5061061;28;20025;-79
2022/12/31 06:54:42;;;;;;;62.30;45.90;;;;;;;3.32;64.57;100663.56;5060643;28;20108;-79
2022/12/31 06:57:08;;;;;;;57.67;42.50;;;;;;;4.91;64.43;100912.16;5060831;28;20511;-79
2022/12/31 06:59:34;;;;;;;67.57;47.90;;;;;;;4.97;64.59;100911.72;5058894;28;20489;-79
2022/12/31 07:02:12;;;;;;;67.17;48.50;;;;;;;4.82;64.56;100872.72;5054552;28;20074;-79
2022/12/31 07:05:03;;;;;;;62.07;45.77;;;;;;;5.05;64.43;100906.78;5054582;28;20046;-79
2022/12/31 07:07:39;;;;;;;58.35;42.42;;;;;;;5.08;64.63;100916.19;5052152;28;20032;-80
2022/12/31 07:10:24;;;;;;;53.33;39.37;;;;;;;5.06;64.61;100924.16;5054362;28;20028;-79
2022/12/31 07:13:34;;;;;;;49.87;36.27;;;;;;;5.06;64.96;100925.94;5052714;28;20085;-79
2022/12/31 07:16:11;;;;;;;47.63;35.20;;;;;;;5.11;64.68;100927.28;5052016;28;20036;-79
2022/12/31 07:18:42;;;;;;;51.27;38.87;;;;;;;5.15;64.66;100927.88;5054200;28;20013;-80
2022/12/31 07:21:17;;;;;;;45.80;35.17;;;;;;;5.21;64.61;100952.84;5054465;28;20032;-80
2022/12/31 07:23:43;;;;;;;50.67;36.30;;;;;;;4.07;64.77;100742.81;5054286;28;20310;-79
2022/12/31 07:26:44;;;;;;;47.93;36.03;;;;;;;5.29;64.93;100934.78;5054366;28;20056;-79
2022/12/31 07:29:35;;;;;;;48.67;38.30;;;;;;;5.29;64.68;100933.00;5054259;28;20033;-80
2022/12/31 07:32:09;;;;;;;45.53;35.17;;;;;;;5.31;64.84;100943.38;5053754;28;20052;-79
2022/12/31 07:34:40;;;;;;;48.07;36.57;;;;;;;5.34;65.07;100943.16;5054432;28;20033;-79
2022/12/31 07:37:27;;;;;;;56.08;42.83;;;;;;;5.23;64.95;100917.75;5054123;28;20031;-79
2022/12/31 07:40:07;;;;;;;55.27;42.90;;;;;;;5.41;64.68;100942.59;5054069;28;20039;-79
2022/12/31 07:43:01;;;;;;;58.27;42.70;;;;;;;5.34;64.72;100919.59;5053985;28;20075;-80
2022/12/31 07:45:32;;;;;;;55.47;42.67;;;;;;;5.57;64.16;100944.09;5056655;28;20121;-79
2022/12/31 07:47:57;;;;;;;57.80;42.80;;;;;;;5.39;64.30;100914.84;5056620;28;20056;-79
2022/12/31 07:50:23;;;;;;;56.77;44.13;;;;;;;5.02;64.41;100852.03;5056753;28;20322;-79
2022/12/31 07:52:49;;;;;;;53.85;40.47;;;;;;;5.71;64.62;100952.63;5056776;28;20413;-78
2022/12/31 07:55:15;;;;;;;60.43;46.10;;;;;;;5.77;64.34;100953.97;5056356;28;20079;-79
2022/12/31 07:57:56;;;;;;;59.77;45.53;;;;;;;5.85;64.50;100953.41;5055224;28;20024;-79
2022/12/31 08:00:22;;;;;;;55.53;43.10;;;;;;;5.91;64.52;100963.47;5054393;28;20035;-79
2022/12/31 08:03:08;;;;;;;57.72;45.53;;;;;;;5.96;64.49;100966.59;5052324;28;20025;-79
2022/12/31 08:05:49;;;;;;;61.78;43.42;;;;;;;5.03;64.66;100822.28;5053469;28;20108;-79
2022/12/31 08:08:22;;;;;;;61.00;45.73;;;;;;;6.05;64.83;100966.75;5053218;28;20036;-79
2022/12/31 08:10:47;;;;;;;62.10;45.43;;;;;;;6.09;64.58;100966.53;5053172;28;20028;-80
2022/12/31 08:13:13;;;;;;;63.47;46.30;;;;;;;6.03;64.53;100946.84;5053087;28;20048;-79
2022/12/31 08:15:40;;;;;;;61.95;45.75;;;;;;;5.46;64.08;100875.94;5053362;28;20060;-79
2022/12/31 08:18:06;;;;;;;62.53;47.88;;;;;;;6.25;63.89;100974.94;5053311;28;20024;-79
2022/12/31 08:20:35;;;;;;;70.15;52.60;;;;;;;6.30;63.85;100976.25;5053111;28;20025;-79
2022/12/31 08:23:17;;;;;;;68.85;51.50;;;;;;;6.24;64.19;100954.91;5053014;28;20020;-80
2022/12/31 08:26:23;;;;;;;70.35;52.45;;;;;;;6.19;64.51;100933.44;5052957;28;20025;-80
2022/12/31 08:29:00;;;;;;;77.32;58.60;;;;;;;6.46;64.61;100967.22;5052496;28;20041;-79
2022/12/31 08:31:35;;;;;;;75.60;54.88;;;;;;;6.52;63.92;100961.50;5051514;28;20394;-80
2022/12/31 08:34:31;;;;;;;71.55;56.08;;;;;;;6.49;64.33;100951.25;5052873;28;20074;-79
2022/12/31 08:37:22;;;;;;;70.85;54.63;;;;;;;6.62;64.29;100955.44;5052805;28;20390;-79
2022/12/31 08:40:09;;;;;;;85.10;61.53;;;;;;;6.68;64.39;100956.75;5051554;28;20032;-79
2022/12/31 08:42:54;;;;;;;75.10;56.35;;;;;;;6.69;63.96;100950.56;5052840;28;20075;-80
2022/12/31 08:45:38;;;;;;;82.00;56.67;;;;;;;6.84;63.79;100957.25;5048135;28;20036;-79
2022/12/31 08:48:42;;;;;;;72.25;52.45;;;;;;;6.92;64.55;100965.38;5052622;28;20104;-79
2022/12/31 08:51:27;;;;;;;65.10;49.40;;;;;;;7.01;64.21;100963.81;5030760;28;20160;-79
2022/12/31 08:53:54;;;;;;;69.63;52.40;;;;;;;6.46;64.37;100843.91;5030191;28;20056;-79
2022/12/31 08:56:30;;;;;;;71.15;51.85;;;;;;;6.20;64.29;100786.44;5044043;28;20033;-79
2022/12/31 08:59:30;;;;;;;59.65;45.88;;;;;;;7.22;64.80;100943.72;5052607;28;20020;-79
2022/12/31 09:02:07;;;;;;;56.38;44.53;;;;;;;7.29;64.79;100942.28;5052081;28;20419;-79
2022/12/31 09:04:57;;;;;;;57.35;44.58;;;;;;;7.36;64.83;100945.25;5052039;28;20107;-79
2022/12/31 09:07:38;;;;;;;55.72;44.55;;;;;;;6.50;64.61;100806.81;5052129;28;20494;-79
2022/12/31 09:10:31;;;;;;;58.00;43.72;;;;;;;7.49;64.74;100932.81;5052206;28;20028;-79
2022/12/31 09:13:34;;;;;;;56.60;41.78;;;;;;;7.55;64.68;100934.97;5050447;28;20072;-79
2022/12/31 09:16:13;;;;;;;58.15;45.35;;;;;;;7.62;65.10;100938.75;5051924;28;20032;-79
2022/12/31 09:18:40;;;;;;;57.40;44.90;;;;;;;7.10;64.94;100830.94;5050339;28;20025;-79
2022/12/31 09:21:09;;;;;;;56.45;42.08;;;;;;;7.66;64.68;100910.44;5050582;28;20094;-79
2022/12/31 09:23:35;;;;;;;52.03;38.92;;;;;;;7.84;65.05;100929.09;5051778;28;20554;-79
2022/12/31 09:26:12;;;;;;;47.10;38.80;;;;;;;7.91;65.26;100925.00;5051683;28;20107;-79
2022/12/31 09:28:49;;;;;;;48.78;37.13;;;;;;;7.56;64.73;100855.16;5051654;28;20025;-78
2022/12/31 09:31:26;;;;;;;46.08;37.47;;;;;;;8.06;64.83;100918.47;5051651;28;20033;-79
2022/12/31 09:34:00;;;;;;;41.65;34.35;;;;;;;8.13;64.30;100916.16;5051723;28;20040;-79
2022/12/31 09:36:35;;;;;;;45.72;34.13;;;;;;;8.14;63.96;100930.97;5051379;28;20482;-79
2022/12/31 09:39:14;;;;;;;42.78;31.98;;;;;;;8.28;64.19;100921.00;5051438;28;20053;-79
2022/12/31 09:41:55;;;;;;;38.33;31.45;;;;;;;8.34;64.30;100917.03;5051467;28;20028;-79
2022/12/31 09:44:42;;;;;;;42.10;32.95;;;;;;;8.44;64.06;100917.09;5051582;28;20082;-79
2022/12/31 09:47:35;;;;;;;41.42;33.17;;;;;;;8.24;63.76;100874.84;5051911;28;20040;-79
2022/12/31 09:50:30;;;;;;;44.22;31.40;;;;;;;8.65;63.73;100903.91;5052017;28;20035;-79
2022/12/31 09:53:25;;;;;;;42.05;34.15;;;;;;;8.73;63.49;100904.06;5051821;28;20025;-79
2022/12/31 09:56:15;;;;;;;38.83;29.08;;;;;;;8.81;63.46;100899.78;5051275;28;20068;-79
2022/12/31 09:59:01;;;;;;;41.90;32.72;;;;;;;8.12;62.88;100770.66;5051738;28;20029;-79
2022/12/31 10:01:39;;;;;;;39.42;30.50;;;;;;;8.94;63.20;100886.41;5049724;28;20106;-79
2022/12/31 10:04:30;;;;;;;43.20;32.53;;;;;;;8.47;63.15;100790.50;5051102;28;20025;-79
2022/12/31 10:07:04;;;;;;;38.67;31.45;;;;;;;9.18;62.74;100886.06;5050889;28;20032;-79
2022/12/31 10:09:56;;;;;;;39.00;29.15;;;;;;;9.24;62.52;100885.50;5051269;28;20063;-79
2022/12/31 10:12:27;;;;;;;40.13;31.05;;;;;;;9.32;62.29;100877.75;5047653;28;20488;-79
2022/12/31 10:15:12;;;;;;;40.30;30.80;;;;;;;9.39;62.13;100880.66;5051309;28;20029;-79
2022/12/31 10:18:01;;;;;;;37.25;29.50;;;;;;;9.45;62.33;100878.31;5051608;28;20134;-79
2022/12/31 10:20:54;;;;;;;34.72;27.38;;;;;;;9.18;61.89;100818.38;5051714;28;20039;-79
2022/12/31 10:23:47;;;;;;;40.80;29.67;;;;;;;9.64;61.72;100871.38;5050755;28;20044;-79
2022/12/31 10:26:24;;;;;;;36.10;29.88;;;;;;;9.70;61.61;100860.28;5051452;28;20024;-79
2022/12/31 10:29:13;;;;;;;42.58;32.22;;;;;;;9.79;61.24;100867.38;5051535;28;20032;-79
2022/12/31 10:31:47;;;;;;;48.03;35.55;;;;;;;9.88;61.38;100864.72;5051129;28;20490;-79
2022/12/31 10:34:14;;;;;;;47.58;36.17;;;;;;;9.94;61.30;100862.50;5050964;28;20036;-79
2022/12/31 10:36:50;;;;;;;37.45;31.17;;;;;;;9.97;61.07;100857.75;5050698;28;20044;-79
2022/12/31 10:39:21;;;;;;;44.50;34.90;;;;;;;10.01;60.70;100848.59;5050811;28;20025;-79
2022/12/31 10:42:14;;;;;;;41.93;33.97;;;;;;;10.06;60.84;100849.00;5051048;28;20029;-79
2022/12/31 10:45:13;;;;;;;43.33;31.15;;;;;;;10.09;60.81;100853.97;5051329;28;20256;-79
2022/12/31 10:48:16;;;;;;;38.53;28.35;;;;;;;10.11;60.25;100844.13;5051056;28;20028;-79
2022/12/31 10:50:44;;;;;;;43.13;31.60;;;;;;;10.15;60.73;100842.03;5051159;28;20090;-79
2022/12/31 10:53:46;;;;;;;37.63;29.55;;;;;;;10.20;60.84;100842.44;5050971;28;20029;-79
2022/12/31 10:56:32;;;;;;;36.13;28.80;;;;;;;10.24;60.21;100835.06;5051174;28;20485;-79
2022/12/31 10:59:00;;;;;;;39.50;28.98;;;;;;;10.26;60.34;100839.25;5051280;28;20029;-79
2022/12/31 11:01:29;;;;;;;34.65;27.50;;;;;;;10.31;60.01;100839.63;5051075;28;20021;-79
2022/12/31 11:04:18;;;;;;;32.40;24.85;;;;;;;10.31;59.89;100837.00;5051251;28;20040;-79
2022/12/31 11:06:44;;;;;;;32.97;26.17;;;;;;;10.35;60.07;100832.25;5050929;28;20036;-79
2022/12/31 11:09:15;;;;;;;32.70;26.13;;;;;;;10.34;59.97;100826.16;5054554;28;20025;-79
2022/12/31 11:11:48;;;;;;;33.97;27.42;;;;;;;10.14;59.71;100795.50;5051692;28;20025;-79
2022/12/31 11:14:15;;;;;;;34.67;27.52;;;;;;;10.34;59.62;100825.31;5040514;28;20030;-79
2022/12/31 11:16:52;;;;;;;30.27;23.85;;;;;;;10.14;59.79;100785.75;5036701;28;20035;-79
2022/12/31 11:19:34;;;;;;;32.03;25.73;;;;;;;10.31;59.95;100802.69;5040773;28;20022;-79
2022/12/31 11:22:15;;;;;;;29.10;21.17;;;;;;;10.44;59.74;100824.31;5040691;28;20017;-79
2022/12/31 11:25:05;;;;;;;32.55;25.38;;;;;;;10.49;58.93;100818.59;5034512;28;20465;-79
2022/12/31 11:27:51;;;;;;;32.53;23.33;;;;;;;10.52;58.66;100818.31;5034026;28;20046;-79
2022/12/31 11:30:19;;;;;;;34.88;26.88;;;;;;;10.55;59.21;100809.25;5034412;28;20021;-78
2022/12/31 11:33:34;;;;;;;32.33;26.15;;;;;;;10.56;58.94;100805.66;5034257;28;20105;-79
2022/12/31 11:36:08;;;;;;;33.83;24.92;;;;;;;10.60;59.33;100809.66;5033331;28;20029;-79
2022/12/31 11:38:50;;;;;;;31.67;24.80;;;;;;;10.19;58.80;100736.03;5034318;28;20026;-79
2022/12/31 11:41:29;;;;;;;31.38;23.92;;;;;;;10.21;58.89;100740.34;5034076;28;20022;-79
2022/12/31 11:44:13;;;;;;;30.50;24.25;;;;;;;10.66;58.98;100804.63;5034011;28;20022;-79
2022/12/31 11:47:03;;;;;;;32.38;26.23;;;;;;;10.45;58.67;100762.63;5034373;28;20032;-79
2022/12/31 11:49:53;;;;;;;34.90;24.30;;;;;;;10.72;58.46;100798.75;5034333;28;20037;-79
2022/12/31 11:52:33;;;;;;;28.10;23.10;;;;;;;10.75;58.88;100797.63;5034014;28;20045;-79
2022/12/31 11:55:41;;;;;;;31.55;24.77;;;;;;;10.77;58.29;100793.00;5033872;28;20116;-79
2022/12/31 11:58:19;;;;;;;30.30;23.50;;;;;;;10.82;58.29;100802.16;5012203;28;20021;-79